Mercer, WI

10:16 PM CDT on September 29, 2016 (GMT -0500)
Pine Lake ,Town of Oma | | Change Station

Elev 1604 ft 46.25 °N, 90.13 °W | Updated 49 seconds ago

Scattered Clouds
Scattered Clouds
54.0 °F
Feels Like 54.0 °F
N
0.0
Wind Variable Wind from SE
Gusts 0.0 mph

Today
High -- | Low -- °F
--% Chance of Precip.
Yesterday
High -- | Low -- °F
Precip. -- in
Pressure 30.45 in
Visibility 10.0 miles
Clouds Scattered Clouds 800 ft
Dew Point 52 °F
Humidity 92%
Rainfall 0.00 in
Snow Depth Not available.
6:56 AM 6:43 PM
Waning Crescent, 1% visible
METAR KD25 300255Z AUTO 04003KT 10SM SCT008 11/11 A3045 RMK AO2 T01070107
Pressure 30.45 in
Visibility 10.0 miles
Clouds Scattered Clouds 800 ft
Dew Point 52 °F
Humidity 92%
Rainfall 0.00 in
Snow Depth Not available.
6:56 AM 6:43 PM
Waning Crescent, 1% visible
METAR KD25 300255Z AUTO 04003KT 10SM SCT008 11/11 A3045 RMK AO2 T01070107

10-Day Weather Forecast

Almanac

Astronomy

Sep. 29, 2016 Rise Set
Actual Time
Civil Twilight
Nautical Twilight
Astronomical Twilight
Moon
Length of Visible Light
Length of Day
Tomorrow will be .
, % of the Moon is Illuminated

Today's Extremes

State Highs State Lows

Community

WunderPhotos

Upload Photos

1,942,649 photos uploaded!

WunderBlog® & News

Nearby

Air Quality

  Air Quality AQ Index Pollutant
Not available.

Snow Depth

Station Depth Elevation

Earthquake Activity

City Distance Mag. Time & Date
Minimum magnitude displayed is 2.5.

Coastal Water Temperatures

Place Temperature

Stations

Nearby Weather Stations

Station Location Temp. Windchill Dew Point Humidity Wind Precip. Elev Updated Type
                   

Watches & Warnings

There are currently no watches in effect.